createdAt,value
2019-05-26T00:01:05.868Z,7.60
2019-05-26T00:03:34.740Z,7.87
2019-05-26T00:06:07.409Z,7.27
2019-05-26T00:08:36.412Z,7.50
2019-05-26T00:11:05.429Z,6.63
2019-05-26T00:13:34.366Z,7.60
2019-05-26T00:16:03.315Z,7.97
2019-05-26T00:18:33.651Z,8.03
2019-05-26T00:21:02.864Z,7.70
2019-05-26T00:23:31.794Z,7.67
2019-05-26T00:26:00.765Z,7.93
2019-05-26T00:28:29.697Z,8.20
2019-05-26T00:30:58.653Z,7.10
2019-05-26T00:33:28.652Z,7.13
2019-05-26T00:35:57.635Z,7.40
2019-05-26T00:38:26.628Z,7.97
2019-05-26T00:40:55.529Z,7.53
2019-05-26T00:43:24.395Z,7.73
2019-05-26T00:45:53.411Z,7.40
2019-05-26T00:48:22.366Z,7.50
2019-05-26T00:50:51.391Z,8.07
2019-05-26T00:53:21.496Z,9.77
2019-05-26T00:55:53.684Z,12.30
2019-05-26T00:58:24.709Z,11.40
2019-05-26T01:00:53.665Z,10.03
2019-05-26T01:03:22.797Z,10.57
2019-05-26T01:05:51.705Z,9.60
2019-05-26T01:08:21.004Z,9.33
2019-05-26T01:10:49.920Z,9.07
2019-05-26T01:13:18.852Z,8.37
2019-05-26T01:15:48.996Z,8.40
2019-05-26T01:18:21.525Z,8.90
2019-05-26T01:20:50.421Z,9.30
2019-05-26T01:23:22.468Z,8.40
2019-05-26T01:25:51.733Z,8.57
2019-05-26T01:28:20.780Z,7.77
2019-05-26T01:30:49.661Z,8.53
2019-05-26T01:33:18.603Z,9.57
2019-05-26T01:35:49.160Z,9.40
2019-05-26T01:38:23.939Z,9.20
2019-05-26T01:40:50.119Z,8.60
2019-05-26T01:43:19.037Z,9.13
2019-05-26T01:45:47.942Z,8.83
2019-05-26T01:48:20.311Z,8.80
2019-05-26T01:50:49.288Z,9.57
2019-05-26T01:53:18.176Z,8.57
2019-05-26T01:55:47.143Z,9.37
2019-05-26T01:58:19.372Z,8.07
2019-05-26T02:00:48.237Z,8.27
2019-05-26T02:03:17.283Z,8.03
2019-05-26T02:05:46.133Z,9.10
2019-05-26T02:08:15.121Z,8.57
2019-05-26T02:10:44.194Z,9.03
2019-05-26T02:13:13.142Z,7.90
2019-05-26T02:15:42.089Z,8.20
2019-05-26T02:18:11.011Z,8.17
2019-05-26T02:20:39.884Z,7.37
2019-05-26T02:23:08.763Z,8.17
2019-05-26T02:25:37.699Z,8.17
2019-05-26T02:28:06.583Z,8.80
2019-05-26T02:30:35.504Z,8.17
2019-05-26T02:33:04.557Z,8.33
2019-05-26T02:35:33.681Z,8.20
2019-05-26T02:38:03.469Z,9.23
2019-05-26T02:40:35.409Z,9.00
2019-05-26T02:43:08.420Z,9.13
2019-05-26T02:45:37.398Z,8.60
2019-05-26T02:48:06.403Z,8.53
2019-05-26T02:50:38.250Z,8.50
2019-05-26T02:53:07.326Z,8.70
2019-05-26T02:55:36.316Z,9.53
2019-05-26T02:58:05.195Z,8.20
2019-05-26T03:00:44.239Z,9.73
2019-05-26T03:03:16.079Z,9.37
2019-05-26T03:05:49.766Z,10.03
2019-05-26T03:08:22.098Z,9.47
2019-05-26T03:10:51.213Z,9.23
2019-05-26T03:13:20.337Z,9.33
2019-05-26T03:15:49.256Z,10.17
2019-05-26T03:18:18.287Z,9.73
2019-05-26T03:20:47.217Z,9.60
2019-05-26T03:23:17.204Z,11.43
2019-05-26T03:25:49.109Z,10.70
2019-05-26T03:28:18.032Z,8.73
2019-05-26T03:30:46.943Z,9.93
2019-05-26T03:33:16.085Z,9.93
2019-05-26T03:35:45.118Z,10.00
2019-05-26T03:38:13.985Z,9.33
2019-05-26T03:40:44.146Z,9.90
2019-05-26T03:43:18.457Z,10.40
2019-05-26T03:46:15.460Z,9.33
2019-05-26T03:48:44.465Z,9.87
2019-05-26T03:51:13.878Z,8.67
2019-05-26T03:53:42.812Z,9.13
2019-05-26T03:56:11.881Z,8.90
2019-05-26T03:58:40.779Z,9.00
2019-05-26T04:01:09.755Z,9.30
2019-05-26T04:03:38.661Z,9.77
2019-05-26T04:06:09.973Z,10.33
2019-05-26T04:08:38.872Z,10.47
2019-05-26T04:11:07.823Z,9.60
2019-05-26T04:13:37.059Z,10.00
2019-05-26T04:16:06.000Z,9.50
2019-05-26T04:18:34.972Z,9.67
2019-05-26T04:21:03.868Z,9.67
2019-05-26T04:23:32.807Z,9.67
2019-05-26T04:26:01.798Z,9.80
2019-05-26T04:28:30.755Z,10.20
2019-05-26T04:30:59.668Z,9.87
2019-05-26T04:33:28.868Z,9.70
2019-05-26T04:35:57.782Z,11.00
2019-05-26T04:38:26.752Z,10.77
2019-05-26T04:40:58.488Z,11.63
2019-05-26T04:43:28.308Z,9.83
2019-05-26T04:45:57.440Z,11.57
2019-05-26T04:48:26.386Z,10.03
2019-05-26T04:50:55.338Z,12.27
2019-05-26T04:53:24.236Z,12.47
2019-05-26T04:55:54.535Z,14.33
2019-05-26T04:58:23.443Z,13.93
2019-05-26T05:00:55.516Z,13.50
2019-05-26T05:03:24.484Z,15.30
2019-05-26T05:05:53.435Z,16.17
2019-05-26T05:08:22.372Z,14.27
2019-05-26T05:10:51.266Z,13.87
2019-05-26T05:13:25.012Z,13.03
2019-05-26T05:15:54.269Z,14.27
2019-05-26T05:18:23.282Z,14.47
2019-05-26T05:20:52.173Z,14.00
2019-05-26T05:23:21.209Z,14.00
2019-05-26T05:25:50.168Z,14.40
2019-05-26T05:28:21.165Z,13.53
2019-05-26T05:30:50.309Z,12.73
2019-05-26T05:33:19.239Z,12.63
2019-05-26T05:35:51.746Z,12.77
2019-05-26T05:38:20.697Z,11.43
2019-05-26T05:40:58.781Z,11.27
2019-05-26T05:43:20.130Z,10.10
2019-05-26T05:45:50.285Z,10.60
2019-05-26T05:48:19.182Z,9.23
2019-05-26T05:50:50.646Z,9.53
2019-05-26T05:53:19.592Z,8.90
2019-05-26T05:55:48.498Z,8.20
2019-05-26T05:58:17.387Z,8.73
2019-05-26T06:00:46.438Z,7.63
2019-05-26T06:03:18.753Z,7.77
2019-05-26T06:05:47.325Z,7.20
2019-05-26T06:08:16.405Z,7.00
2019-05-26T06:10:45.286Z,7.40
2019-05-26T06:13:17.304Z,7.20
2019-05-26T06:15:46.324Z,6.20
2019-05-26T06:18:15.275Z,6.43
2019-05-26T06:20:47.138Z,6.63
2019-05-26T06:23:16.082Z,6.83
2019-05-26T06:25:44.986Z,6.00
2019-05-26T06:28:13.884Z,7.00
2019-05-26T06:30:42.884Z,5.97
2019-05-26T06:33:11.812Z,6.53
2019-05-26T06:35:40.826Z,5.27
2019-05-26T06:38:09.810Z,5.43
2019-05-26T06:40:38.806Z,4.93
2019-05-26T06:43:07.748Z,5.40
2019-05-26T06:45:36.905Z,5.60
2019-05-26T06:48:06.916Z,5.20
2019-05-26T06:50:35.830Z,5.37
2019-05-26T06:53:08.059Z,5.30
2019-05-26T06:55:37.115Z,5.00
2019-05-26T06:58:06.282Z,4.70
2019-05-26T07:00:35.305Z,5.37
2019-05-26T07:03:04.303Z,5.00
2019-05-26T07:05:33.374Z,4.90
2019-05-26T07:08:02.435Z,4.90
2019-05-26T07:10:31.416Z,4.93
2019-05-26T07:13:00.386Z,4.67
2019-05-26T07:15:29.446Z,4.70
2019-05-26T07:17:58.521Z,5.50
2019-05-26T07:20:27.404Z,4.97
2019-05-26T07:22:56.331Z,4.90
2019-05-26T07:25:25.418Z,4.83
2019-05-26T07:27:54.311Z,5.60
2019-05-26T07:30:27.738Z,5.13
2019-05-26T07:32:59.653Z,5.60
2019-05-26T07:35:28.560Z,5.60
2019-05-26T07:38:02.811Z,5.63
2019-05-26T07:40:31.812Z,6.03
2019-05-26T07:43:00.664Z,5.33
2019-05-26T07:45:30.378Z,6.07
2019-05-26T07:47:59.413Z,5.90
2019-05-26T07:50:29.415Z,6.33
2019-05-26T07:52:58.396Z,5.87
2019-05-26T07:55:27.576Z,6.30
2019-05-26T07:57:56.457Z,6.53
2019-05-26T08:00:25.401Z,6.90
2019-05-26T08:02:54.335Z,6.27
2019-05-26T08:05:23.292Z,6.23
2019-05-26T08:07:52.201Z,6.63
2019-05-26T08:10:22.277Z,7.23
2019-05-26T08:12:51.245Z,7.07
2019-05-26T08:15:20.225Z,6.70
2019-05-26T08:17:49.169Z,7.50
2019-05-26T08:20:21.365Z,7.50
2019-05-26T08:22:52.916Z,7.07
2019-05-26T08:25:24.120Z,6.77
2019-05-26T08:27:53.078Z,6.80
2019-05-26T08:30:22.178Z,6.33
2019-05-26T08:32:51.081Z,6.80
2019-05-26T08:35:20.055Z,7.73
2019-05-26T08:37:52.028Z,7.77
2019-05-26T08:40:21.075Z,7.60
2019-05-26T08:42:50.498Z,6.80
2019-05-26T08:45:21.765Z,7.10
2019-05-26T08:47:50.461Z,7.30
2019-05-26T08:50:19.508Z,7.47
2019-05-26T08:52:49.407Z,7.20
2019-05-26T08:55:18.305Z,7.40
2019-05-26T08:57:47.279Z,7.17
2019-05-26T09:00:16.860Z,7.43
2019-05-26T09:02:46.008Z,7.83
2019-05-26T09:05:15.053Z,7.10
2019-05-26T09:07:44.159Z,7.90
2019-05-26T09:10:13.224Z,7.50
2019-05-26T09:12:42.166Z,7.57
2019-05-26T09:15:14.408Z,6.70
2019-05-26T09:17:46.372Z,6.27
2019-05-26T09:20:15.364Z,6.40
2019-05-26T09:22:47.663Z,7.63
2019-05-26T09:25:17.041Z,7.13
2019-05-26T09:27:49.597Z,6.43
2019-05-26T09:30:20.094Z,6.30
2019-05-26T09:32:49.029Z,7.10
2019-05-26T09:35:18.130Z,6.53
2019-05-26T09:37:47.118Z,7.37
2019-05-26T09:40:16.191Z,7.00
2019-05-26T09:42:45.185Z,6.57
2019-05-26T09:45:18.272Z,6.90
2019-05-26T09:47:47.257Z,6.80
2019-05-26T09:50:17.221Z,7.20
2019-05-26T09:52:46.128Z,7.10
2019-05-26T09:55:16.057Z,6.00
2019-05-26T09:57:45.109Z,6.03
2019-05-26T10:00:16.154Z,6.70
2019-05-26T10:02:44.872Z,6.53
2019-05-26T10:05:14.847Z,7.17
2019-05-26T10:07:43.910Z,7.03
2019-05-26T10:10:15.708Z,6.77
2019-05-26T10:12:44.634Z,5.70
2019-05-26T10:15:13.911Z,5.53
2019-05-26T10:17:43.591Z,5.73
2019-05-26T10:20:13.213Z,5.67
2019-05-26T10:22:42.357Z,5.67
2019-05-26T10:25:11.532Z,6.27
2019-05-26T10:27:40.479Z,5.33
2019-05-26T10:30:09.662Z,4.83
2019-05-26T10:32:38.744Z,5.30
2019-05-26T10:35:08.470Z,4.63
2019-05-26T10:37:40.643Z,4.40
2019-05-26T10:40:10.647Z,5.40
2019-05-26T10:42:42.743Z,4.90
2019-05-26T10:45:11.871Z,4.60
2019-05-26T10:47:40.850Z,4.60
2019-05-26T10:50:11.062Z,4.00
2019-05-26T10:52:40.025Z,4.20
2019-05-26T10:55:09.218Z,4.83
2019-05-26T10:57:39.141Z,3.80
2019-05-26T11:00:09.458Z,3.80
2019-05-26T11:02:38.494Z,3.77
2019-05-26T11:05:07.943Z,3.83
2019-05-26T11:07:37.101Z,4.10
2019-05-26T11:10:06.198Z,3.73
2019-05-26T11:12:35.267Z,3.77
2019-05-26T11:15:05.084Z,3.47
2019-05-26T11:17:37.084Z,3.90
2019-05-26T11:20:06.626Z,3.53
2019-05-26T11:22:35.548Z,3.67
2019-05-26T11:25:04.981Z,3.53
2019-05-26T11:27:37.305Z,3.63
2019-05-26T11:30:06.299Z,3.60
2019-05-26T11:32:35.508Z,3.00
2019-05-26T11:35:05.176Z,3.00
2019-05-26T11:37:37.257Z,3.10
2019-05-26T11:40:06.410Z,3.43
2019-05-26T11:42:35.433Z,2.80
2019-05-26T11:45:04.578Z,2.40
2019-05-26T11:47:33.676Z,2.90
2019-05-26T11:50:05.216Z,2.53
2019-05-26T11:52:34.103Z,2.27
2019-05-26T11:55:03.177Z,2.30
2019-05-26T11:57:32.127Z,2.53
2019-05-26T12:00:02.075Z,2.47
2019-05-26T12:02:33.336Z,2.30
2019-05-26T12:05:02.717Z,2.50
2019-05-26T12:07:31.709Z,2.37
2019-05-26T12:10:03.764Z,2.17
2019-05-26T12:12:37.005Z,2.33
2019-05-26T12:15:06.338Z,2.20
2019-05-26T12:17:35.323Z,2.27
2019-05-26T12:20:05.435Z,2.40
2019-05-26T12:22:34.759Z,2.37
2019-05-26T12:25:03.764Z,2.50
2019-05-26T12:27:36.063Z,2.47
2019-05-26T12:30:08.315Z,3.20
2019-05-26T12:32:37.463Z,2.60
2019-05-26T12:35:06.725Z,2.53
2019-05-26T12:37:35.754Z,2.80
2019-05-26T12:40:05.268Z,2.47
2019-05-26T12:42:36.351Z,2.90
2019-05-26T12:45:10.243Z,2.97
2019-05-26T12:47:39.236Z,3.50
2019-05-26T12:50:11.130Z,2.90
2019-05-26T12:52:39.980Z,3.67
2019-05-26T12:55:10.941Z,3.57
2019-05-26T12:57:40.130Z,3.37
2019-05-26T13:00:09.771Z,3.50
2019-05-26T13:02:39.547Z,3.80
2019-05-26T13:05:08.612Z,3.93
2019-05-26T13:07:37.704Z,3.70
2019-05-26T13:10:06.830Z,3.20
2019-05-26T13:12:35.809Z,3.80
2019-05-26T13:15:06.463Z,3.73
2019-05-26T13:17:35.491Z,3.87
2019-05-26T13:20:05.058Z,3.60
2019-05-26T13:22:33.986Z,3.70
2019-05-26T13:25:03.240Z,3.40
2019-05-26T13:27:32.170Z,3.80
2019-05-26T13:30:01.762Z,3.63
2019-05-26T13:32:30.726Z,4.60
2019-05-26T13:34:59.646Z,4.10
2019-05-26T13:37:28.675Z,4.40
2019-05-26T13:39:57.605Z,4.40
2019-05-26T13:42:26.504Z,4.47
2019-05-26T13:44:55.572Z,4.70
2019-05-26T13:47:27.491Z,4.47
2019-05-26T13:49:56.525Z,4.03
2019-05-26T13:52:26.570Z,3.80
2019-05-26T13:54:55.528Z,3.50
2019-05-26T13:57:24.442Z,3.47
2019-05-26T13:59:53.574Z,3.80
2019-05-26T14:02:22.568Z,3.60
2019-05-26T14:04:52.651Z,3.83
2019-05-26T14:07:21.878Z,4.37
2019-05-26T14:09:50.782Z,3.47
2019-05-26T14:12:19.929Z,3.43
2019-05-26T14:14:49.691Z,3.17
2019-05-26T14:17:18.961Z,3.27
2019-05-26T14:19:48.606Z,2.80
2019-05-26T14:22:17.513Z,2.93
2019-05-26T14:24:54.084Z,2.93
2019-05-26T14:27:17.144Z,3.30
2019-05-26T14:29:46.356Z,3.03
2019-05-26T14:32:15.343Z,2.70
2019-05-26T14:34:44.232Z,2.80
2019-05-26T14:37:13.195Z,2.90
2019-05-26T14:39:42.153Z,2.77
2019-05-26T14:42:11.105Z,3.10
2019-05-26T14:44:40.037Z,3.00
2019-05-26T14:47:08.959Z,2.80
2019-05-26T14:49:37.896Z,2.50
2019-05-26T14:52:09.056Z,2.60
2019-05-26T14:54:38.009Z,2.37
2019-05-26T14:57:06.940Z,2.97
2019-05-26T14:59:36.165Z,2.73
2019-05-26T15:02:10.665Z,2.63
2019-05-26T15:04:39.617Z,2.67
2019-05-26T15:07:09.901Z,2.80
2019-05-26T15:09:38.800Z,2.77
2019-05-26T15:12:07.843Z,2.53
2019-05-26T15:14:36.957Z,2.50
2019-05-26T15:17:09.218Z,2.50
2019-05-26T15:19:39.220Z,2.60
2019-05-26T15:22:08.322Z,2.40
2019-05-26T15:24:37.240Z,2.40
2019-05-26T15:27:06.256Z,2.50
2019-05-26T15:29:35.195Z,2.50
2019-05-26T15:32:04.255Z,2.70
2019-05-26T15:34:33.282Z,2.43
2019-05-26T15:37:02.384Z,2.57
2019-05-26T15:39:31.399Z,2.80
2019-05-26T15:42:00.417Z,2.77
2019-05-26T15:44:29.413Z,2.83
2019-05-26T15:46:58.407Z,2.40
2019-05-26T15:49:27.389Z,2.87
2019-05-26T15:51:56.483Z,2.50
2019-05-26T15:54:25.494Z,2.70
2019-05-26T15:56:54.472Z,2.77
2019-05-26T15:59:23.436Z,2.30
2019-05-26T16:01:54.661Z,2.80
2019-05-26T16:04:23.924Z,2.60
2019-05-26T16:06:52.835Z,2.40
2019-05-26T16:09:23.048Z,2.50
2019-05-26T16:11:52.559Z,2.63
2019-05-26T16:14:26.842Z,2.20
2019-05-26T16:16:56.171Z,2.30
2019-05-26T16:19:30.660Z,2.80
2019-05-26T16:21:59.831Z,2.43
2019-05-26T16:24:31.187Z,2.43
2019-05-26T16:27:05.021Z,3.17
2019-05-26T16:29:30.869Z,2.37
2019-05-26T16:32:03.209Z,2.67
2019-05-26T16:34:32.214Z,2.43
2019-05-26T16:37:06.737Z,2.77
2019-05-26T16:39:37.353Z,2.67
2019-05-26T16:42:09.226Z,2.50
2019-05-26T16:44:44.355Z,2.87
2019-05-26T16:47:16.212Z,2.50
2019-05-26T16:49:45.288Z,3.10
2019-05-26T16:52:17.040Z,2.83
2019-05-26T16:54:46.137Z,2.60
2019-05-26T16:57:15.073Z,2.70
2019-05-26T16:59:44.013Z,2.57
2019-05-26T17:02:13.068Z,2.60
2019-05-26T17:04:41.955Z,2.90
2019-05-26T17:07:14.065Z,2.90
2019-05-26T17:09:43.077Z,2.37
2019-05-26T17:12:12.927Z,2.80
2019-05-26T17:14:41.889Z,2.57
2019-05-26T17:17:14.997Z,2.97
2019-05-26T17:19:41.457Z,3.10
2019-05-26T17:22:10.333Z,3.17
2019-05-26T17:24:42.720Z,3.00
2019-05-26T17:27:11.673Z,3.20
2019-05-26T17:29:40.597Z,2.97
2019-05-26T17:32:09.738Z,2.70
2019-05-26T17:34:38.821Z,3.17
2019-05-26T17:37:07.845Z,3.30
2019-05-26T17:39:36.820Z,2.87
2019-05-26T17:42:05.736Z,3.37
2019-05-26T17:44:34.833Z,2.80
2019-05-26T17:47:03.802Z,3.20
2019-05-26T17:49:34.948Z,3.20
2019-05-26T17:52:04.004Z,3.57
2019-05-26T17:54:32.947Z,3.27
2019-05-26T17:57:02.013Z,3.50
2019-05-26T17:59:31.004Z,3.47
2019-05-26T18:02:06.796Z,3.50
2019-05-26T18:04:35.782Z,3.53
2019-05-26T18:07:04.681Z,3.47
2019-05-26T18:09:43.731Z,3.47
2019-05-26T18:12:04.538Z,3.40
2019-05-26T18:14:34.509Z,3.70
2019-05-26T18:17:05.841Z,3.40
2019-05-26T18:19:34.796Z,3.60
2019-05-26T18:22:03.790Z,3.70
2019-05-26T18:24:32.799Z,4.50
2019-05-26T18:27:01.744Z,3.93
2019-05-26T18:29:30.798Z,4.93
2019-05-26T18:31:59.820Z,4.80
2019-05-26T18:34:29.030Z,4.80
2019-05-26T18:36:57.931Z,5.10
2019-05-26T18:39:30.389Z,5.30
2019-05-26T18:41:59.331Z,5.40
2019-05-26T18:44:28.357Z,5.80
2019-05-26T18:46:57.364Z,5.70
2019-05-26T18:49:26.417Z,6.27
2019-05-26T18:51:58.020Z,5.53
2019-05-26T18:54:29.025Z,5.57
2019-05-26T18:56:57.802Z,5.50
2019-05-26T18:59:26.724Z,5.60
2019-05-26T19:01:55.667Z,6.30
2019-05-26T19:04:28.349Z,6.07
2019-05-26T19:06:57.443Z,5.70
2019-05-26T19:09:26.423Z,6.43
2019-05-26T19:11:55.553Z,5.77
2019-05-26T19:14:25.004Z,6.00
2019-05-26T19:16:54.911Z,6.33
2019-05-26T19:19:26.927Z,6.87
2019-05-26T19:21:55.950Z,6.40
2019-05-26T19:24:27.489Z,5.93
2019-05-26T19:26:56.505Z,6.40
2019-05-26T19:29:25.508Z,6.67
2019-05-26T19:31:54.512Z,7.30
2019-05-26T19:34:25.570Z,6.30
2019-05-26T19:36:57.215Z,6.70
2019-05-26T19:39:26.164Z,6.40
2019-05-26T19:41:55.265Z,6.23
2019-05-26T19:44:24.389Z,6.50
2019-05-26T19:46:53.458Z,6.03
2019-05-26T19:49:27.736Z,6.10
2019-05-26T19:52:00.113Z,6.43
2019-05-26T19:54:31.674Z,7.20
2019-05-26T19:57:00.651Z,6.47
2019-05-26T19:59:32.891Z,7.20
2019-05-26T20:02:17.776Z,7.43
2019-05-26T20:04:35.117Z,7.77
2019-05-26T20:07:04.274Z,7.90
2019-05-26T20:09:33.292Z,8.00
2019-05-26T20:12:02.331Z,7.97
2019-05-26T20:14:31.417Z,8.03
2019-05-26T20:17:00.555Z,8.27
2019-05-26T20:19:30.601Z,7.53
2019-05-26T20:21:59.664Z,8.03
2019-05-26T20:24:28.938Z,8.03
2019-05-26T20:26:58.095Z,7.63
2019-05-26T20:29:30.041Z,7.97
2019-05-26T20:31:59.094Z,7.83
2019-05-26T20:34:28.112Z,7.43
2019-05-26T20:36:57.083Z,8.10
2019-05-26T20:39:26.176Z,7.77
2019-05-26T20:41:56.759Z,9.20
2019-05-26T20:44:25.831Z,8.80
2019-05-26T20:46:54.902Z,8.43
2019-05-26T20:49:23.802Z,8.60
2019-05-26T20:51:52.907Z,8.40
2019-05-26T20:54:21.804Z,7.70
2019-05-26T20:56:50.790Z,8.63
2019-05-26T20:59:19.679Z,8.63
2019-05-26T21:01:48.702Z,9.60
2019-05-26T21:04:17.668Z,8.80
2019-05-26T21:06:46.594Z,8.90
2019-05-26T21:09:15.841Z,12.20
2019-05-26T21:11:48.251Z,14.50
2019-05-26T21:14:17.180Z,16.23
2019-05-26T21:16:46.262Z,19.60
2019-05-26T21:19:15.261Z,17.37
2019-05-26T21:21:45.285Z,12.07
2019-05-26T21:24:16.951Z,10.90
2019-05-26T21:26:46.084Z,11.87
2019-05-26T21:29:15.083Z,11.07
2019-05-26T21:31:44.020Z,11.27
2019-05-26T21:34:13.035Z,9.77
2019-05-26T21:36:42.142Z,9.33
2019-05-26T21:39:11.385Z,9.80
2019-05-26T21:41:40.774Z,9.43
2019-05-26T21:44:09.739Z,9.40
2019-05-26T21:46:38.738Z,9.17
2019-05-26T21:49:10.197Z,9.13
2019-05-26T21:51:41.468Z,11.20
2019-05-26T21:54:10.527Z,10.37
2019-05-26T21:56:39.504Z,9.13
2019-05-26T21:59:08.452Z,9.50
2019-05-26T22:01:37.423Z,9.53
2019-05-26T22:04:06.587Z,9.20
2019-05-26T22:06:35.573Z,10.17
2019-05-26T22:09:06.191Z,10.40
2019-05-26T22:11:35.139Z,11.23
2019-05-26T22:14:04.149Z,10.10
2019-05-26T22:16:33.271Z,10.93
2019-05-26T22:19:02.243Z,10.20
2019-05-26T22:21:31.302Z,11.20
2019-05-26T22:24:01.090Z,13.70
2019-05-26T22:26:33.332Z,14.03
2019-05-26T22:29:02.349Z,15.30
2019-05-26T22:31:31.292Z,14.37
2019-05-26T22:34:00.272Z,14.00
2019-05-26T22:36:32.541Z,16.70
2019-05-26T22:39:01.496Z,18.17
2019-05-26T22:41:30.454Z,17.10
2019-05-26T22:43:59.422Z,16.23
2019-05-26T22:46:37.154Z,16.77
2019-05-26T22:49:06.056Z,17.80
2019-05-26T22:51:38.275Z,16.80
2019-05-26T22:54:07.298Z,17.77
2019-05-26T22:56:36.198Z,18.20
2019-05-26T22:59:05.515Z,17.70
2019-05-26T23:01:34.442Z,18.40
2019-05-26T23:04:06.579Z,15.93
2019-05-26T23:06:35.531Z,14.67
2019-05-26T23:09:05.483Z,14.30
2019-05-26T23:11:34.495Z,14.20
2019-05-26T23:14:03.525Z,14.30
2019-05-26T23:16:32.529Z,14.47
2019-05-26T23:19:01.470Z,13.60
2019-05-26T23:21:30.481Z,15.57
2019-05-26T23:23:59.612Z,16.30
2019-05-26T23:26:29.499Z,14.53
2019-05-26T23:28:59.319Z,16.37
2019-05-26T23:31:28.267Z,16.00
2019-05-26T23:33:57.127Z,15.50
2019-05-26T23:36:28.388Z,15.83
2019-05-26T23:38:57.300Z,16.33
2019-05-26T23:41:26.225Z,16.50
2019-05-26T23:43:55.883Z,18.27
2019-05-26T23:46:24.750Z,16.03
2019-05-26T23:48:56.385Z,17.10
2019-05-26T23:51:25.291Z,16.93
2019-05-26T23:53:54.182Z,15.97
2019-05-26T23:56:25.912Z,16.73
2019-05-26T23:58:54.880Z,16.30
